THY4902 LTCG-LTAI
Flight info
| Callsign | THY4902 |
|---|---|
| Flight time | 1h 34m |
| Altitude | 350 |
| Route | ARLAT UM11 ARSUG UT284 SIV UA285 MUT UR55 KONAK |
| Aircraft | B738/M-SDE3/K |
Departure
| Time | 2026-05-04 09:46 |
|---|---|
| Airport | Trabzon International Airport (LTCG) |
Arrival
| Time | 2026-05-04 11:20 |
|---|---|
| Airport | Antalya International Airport (LTAI) |
| Time | Latitude | Longitude | Altitude | Speed | Heading |
|---|---|---|---|---|---|
| 2026-05-04 09:21 | 40.99568 | 39.78083 | 113 ft | 0 kts | 201° |
| 2026-05-04 09:34 | 40.99645 | 39.78059 | 113 ft | 1 kts | 110° |
| 2026-05-04 09:34 | 40.99646 | 39.78053 | 113 ft | 0 kts | 110° |
| 2026-05-04 09:35 | 40.99646 | 39.78056 | 113 ft | 1 kts | 110° |
| 2026-05-04 09:37 | 40.99487 | 39.78572 | 113 ft | 8 kts | 111° |
| 2026-05-04 09:37 | 40.99468 | 39.78636 | 113 ft | 7 kts | 111° |
| 2026-05-04 09:38 | 40.99449 | 39.78701 | 113 ft | 8 kts | 111° |
| 2026-05-04 09:38 | 40.99424 | 39.78778 | 113 ft | 10 kts | 114° |
| 2026-05-04 09:38 | 40.99394 | 39.78870 | 113 ft | 11 kts | 114° |
| 2026-05-04 09:38 | 40.99361 | 39.78973 | 113 ft | 11 kts | 112° |
| 2026-05-04 09:39 | 40.99332 | 39.79069 | 113 ft | 8 kts | 107° |
| 2026-05-04 09:39 | 40.99340 | 39.79140 | 113 ft | 7 kts | 71° |
| 2026-05-04 09:39 | 40.99356 | 39.79203 | 113 ft | 6 kts | 71° |
| 2026-05-04 09:39 | 40.99375 | 39.79255 | 113 ft | 7 kts | 62° |
| 2026-05-04 09:40 | 40.99390 | 39.79325 | 113 ft | 7 kts | 92° |
| 2026-05-04 09:40 | 40.99376 | 39.79386 | 113 ft | 6 kts | 111° |
| 2026-05-04 09:40 | 40.99361 | 39.79436 | 113 ft | 5 kts | 110° |
| 2026-05-04 09:40 | 40.99346 | 39.79486 | 113 ft | 9 kts | 113° |
| 2026-05-04 09:41 | 40.99305 | 39.79612 | 113 ft | 20 kts | 113° |
| 2026-05-04 09:42 | 40.99030 | 39.80323 | 113 ft | 4 kts | 111° |
| 2026-05-04 09:43 | 40.99023 | 39.80357 | 113 ft | 3 kts | 91° |
| 2026-05-04 09:43 | 40.99027 | 39.80386 | 113 ft | 3 kts | 58° |
| 2026-05-04 09:43 | 40.99045 | 39.80399 | 113 ft | 3 kts | 4° |
| 2026-05-04 09:43 | 40.99065 | 39.80393 | 113 ft | 2 kts | 322° |
| 2026-05-04 09:44 | 40.99073 | 39.80368 | 113 ft | 3 kts | 289° |
| 2026-05-04 09:44 | 40.99104 | 39.80263 | 113 ft | 34 kts | 291° |
| 2026-05-04 09:44 | 40.99319 | 39.79620 | 113 ft | 115 kts | 291° |
| 2026-05-04 09:46 | 41.02665 | 39.68754 | 4181 ft | 234 kts | 292° |
| 2026-05-04 09:46 | 41.03314 | 39.66635 | 4309 ft | 257 kts | 294° |
| 2026-05-04 09:46 | 41.04017 | 39.64413 | 4289 ft | 267 kts | 294° |
| 2026-05-04 09:47 | 41.04733 | 39.62120 | 4287 ft | 267 kts | 293° |
| 2026-05-04 09:47 | 41.05427 | 39.59866 | 4291 ft | 268 kts | 293° |
| 2026-05-04 09:49 | 41.10611 | 39.42945 | 9244 ft | 302 kts | 289° |
| 2026-05-04 09:49 | 41.11397 | 39.40368 | 9978 ft | 308 kts | 289° |
| 2026-05-04 09:49 | 41.12209 | 39.37707 | 10664 ft | 314 kts | 288° |
| 2026-05-04 09:51 | 41.16000 | 39.21430 | 11758 ft | 306 kts | 263° |
| 2026-05-04 09:51 | 41.15919 | 39.18654 | 12551 ft | 308 kts | 262° |
| 2026-05-04 09:51 | 41.15830 | 39.15818 | 13313 ft | 311 kts | 262° |
| 2026-05-04 09:51 | 41.15651 | 39.12950 | 14018 ft | 312 kts | 256° |
| 2026-05-04 09:52 | 41.15309 | 39.10155 | 14729 ft | 314 kts | 253° |
| 2026-05-04 09:52 | 41.14902 | 39.07298 | 15472 ft | 316 kts | 252° |
| 2026-05-04 09:52 | 41.14475 | 39.04431 | 16161 ft | 319 kts | 253° |
| 2026-05-04 09:52 | 41.14060 | 39.01579 | 16839 ft | 322 kts | 253° |
| 2026-05-04 09:53 | 41.13645 | 38.98635 | 17544 ft | 324 kts | 254° |
| 2026-05-04 09:53 | 41.13238 | 38.95713 | 18194 ft | 328 kts | 254° |
| 2026-05-04 09:53 | 41.12822 | 38.92718 | 18826 ft | 331 kts | 254° |
| 2026-05-04 09:53 | 41.12410 | 38.89752 | 19443 ft | 334 kts | 254° |
| 2026-05-04 09:54 | 41.11983 | 38.86694 | 19938 ft | 341 kts | 254° |
| 2026-05-04 09:54 | 41.11553 | 38.83608 | 20610 ft | 342 kts | 254° |
| 2026-05-04 09:54 | 41.11124 | 38.80524 | 21128 ft | 347 kts | 254° |
| 2026-05-04 09:54 | 41.10683 | 38.77370 | 21659 ft | 351 kts | 254° |
| 2026-05-04 09:55 | 41.10247 | 38.74172 | 22200 ft | 355 kts | 256° |
| 2026-05-04 09:55 | 41.09943 | 38.70893 | 22752 ft | 360 kts | 262° |
| 2026-05-04 09:55 | 41.09909 | 38.67568 | 23228 ft | 368 kts | 268° |
| 2026-05-04 09:55 | 41.10097 | 38.64190 | 23707 ft | 373 kts | 271° |
| 2026-05-04 09:56 | 41.10391 | 38.60719 | 24090 ft | 380 kts | 273° |
| 2026-05-04 09:56 | 41.10716 | 38.57250 | 24505 ft | 384 kts | 274° |
| 2026-05-04 09:56 | 41.11044 | 38.53756 | 24986 ft | 385 kts | 274° |
| 2026-05-04 09:56 | 41.11366 | 38.50227 | 25401 ft | 388 kts | 274° |
| 2026-05-04 09:57 | 41.11679 | 38.46689 | 25803 ft | 390 kts | 273° |
| 2026-05-04 09:57 | 41.11987 | 38.43109 | 26215 ft | 392 kts | 273° |
| 2026-05-04 09:57 | 41.12256 | 38.39515 | 26592 ft | 394 kts | 270° |
| 2026-05-04 09:57 | 41.12308 | 38.35887 | 26989 ft | 393 kts | 263° |
| 2026-05-04 09:58 | 41.11918 | 38.32333 | 27335 ft | 390 kts | 251° |
| 2026-05-04 09:58 | 41.11077 | 38.28964 | 27650 ft | 389 kts | 242° |
| 2026-05-04 09:58 | 41.09891 | 38.25735 | 28037 ft | 387 kts | 236° |
| 2026-05-04 10:00 | 40.96454 | 38.08565 | 30332 ft | 388 kts | 214° |
| 2026-05-04 10:00 | 40.94339 | 38.06405 | 30706 ft | 386 kts | 212° |
| 2026-05-04 10:02 | 40.79004 | 37.91310 | 32584 ft | 398 kts | 216° |
| 2026-05-04 10:04 | 40.63639 | 37.75299 | 34274 ft | 409 kts | 216° |
| 2026-05-04 10:04 | 40.61415 | 37.72994 | 34552 ft | 410 kts | 216° |
| 2026-05-04 10:04 | 40.59166 | 37.70667 | 34739 ft | 413 kts | 216° |
| 2026-05-04 10:04 | 40.56927 | 37.68358 | 34960 ft | 415 kts | 216° |
| 2026-05-04 10:05 | 40.54646 | 37.66008 | 35314 ft | 413 kts | 216° |
| 2026-05-04 10:05 | 40.52395 | 37.63696 | 35692 ft | 411 kts | 216° |
| 2026-05-04 10:05 | 40.50158 | 37.61401 | 35947 ft | 411 kts | 216° |
| 2026-05-04 10:05 | 40.47904 | 37.59091 | 36201 ft | 412 kts | 216° |
| 2026-05-04 10:06 | 40.45637 | 37.56768 | 36415 ft | 414 kts | 216° |
| 2026-05-04 10:06 | 40.43371 | 37.54451 | 36648 ft | 415 kts | 216° |
| 2026-05-04 10:06 | 40.41098 | 37.52128 | 36910 ft | 415 kts | 216° |
| 2026-05-04 10:08 | 40.27422 | 37.38172 | 37810 ft | 426 kts | 217° |
| 2026-05-04 10:08 | 40.25041 | 37.35754 | 37800 ft | 431 kts | 217° |
| 2026-05-04 10:08 | 40.20260 | 37.30901 | 37804 ft | 438 kts | 216° |
| 2026-05-04 10:09 | 40.15481 | 37.26060 | 37802 ft | 436 kts | 216° |
| 2026-05-04 10:09 | 40.10672 | 37.21205 | 37796 ft | 438 kts | 216° |
| 2026-05-04 10:10 | 40.05844 | 37.16340 | 37809 ft | 438 kts | 216° |
| 2026-05-04 10:10 | 40.01024 | 37.11488 | 37793 ft | 438 kts | 216° |
| 2026-05-04 10:11 | 39.96215 | 37.06654 | 37818 ft | 438 kts | 216° |
| 2026-05-04 10:11 | 39.91367 | 37.01796 | 37809 ft | 439 kts | 216° |
| 2026-05-04 10:12 | 39.86517 | 36.96938 | 37806 ft | 441 kts | 216° |
| 2026-05-04 10:12 | 39.81665 | 36.92089 | 37800 ft | 439 kts | 217° |
| 2026-05-04 10:13 | 39.77031 | 36.86906 | 37803 ft | 439 kts | 224° |
| 2026-05-04 10:13 | 39.72790 | 36.81191 | 37799 ft | 439 kts | 226° |
| 2026-05-04 10:14 | 39.68656 | 36.75387 | 37804 ft | 439 kts | 226° |
| 2026-05-04 10:16 | 39.51968 | 36.52351 | 37783 ft | 439 kts | 226° |
| 2026-05-04 10:16 | 39.47767 | 36.46624 | 37766 ft | 439 kts | 226° |
| 2026-05-04 10:17 | 39.43558 | 36.40904 | 37781 ft | 439 kts | 226° |
| 2026-05-04 10:19 | 39.26698 | 36.18105 | 37779 ft | 438 kts | 226° |
| 2026-05-04 10:19 | 39.22515 | 36.12474 | 37778 ft | 438 kts | 226° |
| 2026-05-04 10:20 | 39.18292 | 36.06799 | 37770 ft | 438 kts | 226° |
| 2026-05-04 10:20 | 39.14050 | 36.01137 | 37774 ft | 439 kts | 225° |
| 2026-05-04 10:21 | 39.09701 | 35.95643 | 37765 ft | 440 kts | 224° |
| 2026-05-04 10:21 | 39.05310 | 35.90233 | 37760 ft | 438 kts | 224° |
| 2026-05-04 10:22 | 38.98704 | 35.82081 | 37776 ft | 437 kts | 224° |
| 2026-05-04 10:23 | 38.94356 | 35.76700 | 37771 ft | 436 kts | 224° |
| 2026-05-04 10:25 | 38.77256 | 35.54699 | 37797 ft | 434 kts | 226° |
| 2026-05-04 10:25 | 38.72966 | 35.49189 | 37795 ft | 434 kts | 226° |
| 2026-05-04 10:26 | 38.68713 | 35.43740 | 37802 ft | 434 kts | 225° |
| 2026-05-04 10:26 | 38.64466 | 35.38309 | 37795 ft | 434 kts | 225° |
| 2026-05-04 10:27 | 38.60183 | 35.32845 | 37794 ft | 434 kts | 225° |
| 2026-05-04 10:27 | 38.55910 | 35.27404 | 37790 ft | 434 kts | 225° |
| 2026-05-04 10:28 | 38.51621 | 35.21977 | 37794 ft | 432 kts | 224° |
| 2026-05-04 10:28 | 38.47090 | 35.16898 | 37784 ft | 434 kts | 220° |
| 2026-05-04 10:29 | 38.42415 | 35.12011 | 37787 ft | 432 kts | 220° |
| 2026-05-04 10:29 | 38.37767 | 35.07142 | 37788 ft | 432 kts | 220° |
| 2026-05-04 10:30 | 38.33266 | 35.02093 | 37793 ft | 432 kts | 224° |
| 2026-05-04 10:30 | 38.28915 | 34.96830 | 37795 ft | 431 kts | 224° |
| 2026-05-04 10:31 | 38.24600 | 34.91571 | 37799 ft | 430 kts | 224° |
| 2026-05-04 10:32 | 38.09386 | 34.73224 | 37802 ft | 429 kts | 224° |
| 2026-05-04 10:33 | 38.05006 | 34.67982 | 37793 ft | 430 kts | 224° |
| 2026-05-04 10:33 | 38.00640 | 34.62772 | 37773 ft | 429 kts | 225° |
| 2026-05-04 10:34 | 37.96288 | 34.57591 | 37752 ft | 429 kts | 225° |
| 2026-05-04 10:34 | 37.91942 | 34.52422 | 37758 ft | 430 kts | 225° |
| 2026-05-04 10:35 | 37.87588 | 34.47250 | 37768 ft | 429 kts | 225° |
| 2026-05-04 10:35 | 37.83240 | 34.42084 | 37791 ft | 429 kts | 225° |
| 2026-05-04 10:36 | 37.78869 | 34.36900 | 37805 ft | 429 kts | 225° |
| 2026-05-04 10:36 | 37.74527 | 34.31757 | 37809 ft | 429 kts | 224° |
| 2026-05-04 10:37 | 37.70161 | 34.26591 | 37809 ft | 430 kts | 224° |
| 2026-05-04 10:37 | 37.65791 | 34.21431 | 37805 ft | 429 kts | 224° |
| 2026-05-04 10:39 | 37.50521 | 34.03471 | 37817 ft | 430 kts | 225° |
| 2026-05-04 10:40 | 37.46134 | 33.98332 | 37820 ft | 430 kts | 225° |
| 2026-05-04 10:40 | 37.41750 | 33.93210 | 37824 ft | 430 kts | 225° |
| 2026-05-04 10:41 | 37.37382 | 33.88121 | 37823 ft | 427 kts | 225° |
| 2026-05-04 10:41 | 37.33018 | 33.83044 | 37816 ft | 428 kts | 225° |
| 2026-05-04 10:42 | 37.28622 | 33.77942 | 37818 ft | 430 kts | 225° |
| 2026-05-04 10:42 | 37.24257 | 33.72882 | 37801 ft | 428 kts | 225° |
| 2026-05-04 10:43 | 37.19860 | 33.67793 | 37810 ft | 429 kts | 225° |
| 2026-05-04 10:45 | 37.02346 | 33.47604 | 37801 ft | 428 kts | 225° |
| 2026-05-04 10:45 | 36.97975 | 33.42585 | 37804 ft | 428 kts | 225° |
| 2026-05-04 10:46 | 36.93534 | 33.37495 | 37802 ft | 429 kts | 225° |
| 2026-05-04 10:46 | 36.89564 | 33.31979 | 37807 ft | 426 kts | 239° |
| 2026-05-04 10:47 | 36.87288 | 33.25283 | 37810 ft | 421 kts | 256° |
| 2026-05-04 10:47 | 36.86483 | 33.18071 | 37812 ft | 422 kts | 268° |
| 2026-05-04 10:49 | 36.87580 | 32.88816 | 37784 ft | 421 kts | 272° |
| 2026-05-04 10:50 | 36.87815 | 32.81565 | 37800 ft | 424 kts | 272° |
| 2026-05-04 10:51 | 36.88565 | 32.55811 | 34850 ft | 424 kts | 272° |
| 2026-05-04 10:52 | 36.88665 | 32.52148 | 34207 ft | 425 kts | 272° |
| 2026-05-04 10:52 | 36.88764 | 32.48490 | 33716 ft | 421 kts | 273° |
| 2026-05-04 10:52 | 36.88862 | 32.44837 | 33250 ft | 417 kts | 273° |
| 2026-05-04 10:54 | 36.89501 | 32.20451 | 30246 ft | 388 kts | 275° |
| 2026-05-04 10:54 | 36.89584 | 32.17102 | 29776 ft | 385 kts | 275° |
| 2026-05-04 10:56 | 36.90130 | 31.94386 | 26251 ft | 365 kts | 277° |
| 2026-05-04 10:56 | 36.90196 | 31.91255 | 25766 ft | 362 kts | 277° |
| 2026-05-04 10:56 | 36.90258 | 31.88119 | 25235 ft | 360 kts | 277° |
| 2026-05-04 10:57 | 36.90319 | 31.85058 | 24762 ft | 355 kts | 277° |
| 2026-05-04 10:57 | 36.90379 | 31.81988 | 24298 ft | 351 kts | 277° |
| 2026-05-04 10:57 | 36.90438 | 31.78981 | 23738 ft | 349 kts | 277° |
| 2026-05-04 10:57 | 36.90496 | 31.75974 | 23205 ft | 346 kts | 277° |
| 2026-05-04 10:58 | 36.90528 | 31.72965 | 22610 ft | 346 kts | 275° |
| 2026-05-04 10:58 | 36.90470 | 31.69997 | 22113 ft | 343 kts | 273° |
| 2026-05-04 10:58 | 36.90364 | 31.67034 | 21535 ft | 342 kts | 273° |
| 2026-05-04 10:58 | 36.90248 | 31.64113 | 21039 ft | 339 kts | 272° |
| 2026-05-04 10:59 | 36.90134 | 31.61169 | 20478 ft | 337 kts | 272° |
| 2026-05-04 10:59 | 36.90030 | 31.58257 | 19904 ft | 336 kts | 272° |
| 2026-05-04 10:59 | 36.89933 | 31.55386 | 19458 ft | 331 kts | 272° |
| 2026-05-04 10:59 | 36.89839 | 31.52516 | 18883 ft | 331 kts | 272° |
| 2026-05-04 11:00 | 36.89749 | 31.49669 | 18370 ft | 329 kts | 272° |
| 2026-05-04 11:01 | 36.89945 | 31.31275 | 16028 ft | 289 kts | 277° |
| 2026-05-04 11:02 | 36.90066 | 31.28799 | 15620 ft | 288 kts | 277° |
| 2026-05-04 11:02 | 36.90180 | 31.26309 | 15176 ft | 288 kts | 277° |
| 2026-05-04 11:05 | 36.82083 | 31.01798 | 11585 ft | 238 kts | 198° |
| 2026-05-04 11:06 | 36.80513 | 31.01238 | 11320 ft | 236 kts | 198° |
| 2026-05-04 11:06 | 36.78926 | 31.00668 | 11030 ft | 234 kts | 198° |
| 2026-05-04 11:06 | 36.77388 | 31.00111 | 10751 ft | 233 kts | 198° |
| 2026-05-04 11:06 | 36.75823 | 30.99538 | 10441 ft | 233 kts | 198° |
| 2026-05-04 11:08 | 36.65332 | 30.95543 | 8787 ft | 206 kts | 198° |
| 2026-05-04 11:10 | 36.56032 | 30.91558 | 6692 ft | 197 kts | 238° |
| 2026-05-04 11:12 | 36.57334 | 30.81230 | 5198 ft | 174 kts | 289° |
| 2026-05-04 11:12 | 36.57645 | 30.79753 | 5099 ft | 175 kts | 290° |
| 2026-05-04 11:12 | 36.57955 | 30.78300 | 4999 ft | 173 kts | 292° |
| 2026-05-04 11:12 | 36.58567 | 30.77079 | 4900 ft | 167 kts | 320° |
| 2026-05-04 11:13 | 36.59525 | 30.76269 | 4794 ft | 166 kts | 345° |
| 2026-05-04 11:13 | 36.60676 | 30.76167 | 4697 ft | 166 kts | 358° |
| 2026-05-04 11:13 | 36.61805 | 30.75969 | 4606 ft | 163 kts | 349° |
| 2026-05-04 11:13 | 36.62927 | 30.75807 | 4591 ft | 164 kts | 358° |
| 2026-05-04 11:14 | 36.66348 | 30.76068 | 4567 ft | 164 kts | 4° |
| 2026-05-04 11:16 | 36.74258 | 30.77127 | 2983 ft | 160 kts | 4° |
| 2026-05-04 11:16 | 36.75370 | 30.77278 | 2762 ft | 159 kts | 4° |
| 2026-05-04 11:16 | 36.76463 | 30.77425 | 2550 ft | 159 kts | 3° |
| 2026-05-04 11:17 | 36.77554 | 30.77573 | 2335 ft | 155 kts | 3° |
| 2026-05-04 11:17 | 36.78618 | 30.77716 | 2137 ft | 153 kts | 3° |
| 2026-05-04 11:19 | 36.84887 | 30.78577 | 909 ft | 131 kts | 359° |
| 2026-05-04 11:19 | 36.85776 | 30.78705 | 727 ft | 128 kts | 359° |
| 2026-05-04 11:19 | 36.86661 | 30.78814 | 580 ft | 126 kts | 358° |
| 2026-05-04 11:19 | 36.87510 | 30.78914 | 379 ft | 123 kts | 1° |
| 2026-05-04 11:20 | 36.88382 | 30.79059 | 223 ft | 129 kts | 358° |
| 2026-05-04 11:20 | 36.89260 | 30.79155 | 180 ft | 122 kts | 360° |
| 2026-05-04 11:20 | 36.90087 | 30.79247 | 178 ft | 114 kts | 11° |
| 2026-05-04 11:20 | 36.90651 | 30.79259 | 177 ft | 24 kts | 347° |
| 2026-05-04 11:22 | 36.91051 | 30.79507 | 167 ft | 3 kts | 57° |
| 2026-05-04 11:22 | 36.91061 | 30.79519 | 167 ft | 5 kts | 35° |
| 2026-05-04 11:23 | 36.91121 | 30.79567 | 167 ft | 14 kts | 30° |
| 2026-05-04 11:23 | 36.91194 | 30.79622 | 165 ft | 1 kts | 41° |
| 2026-05-04 11:24 | 36.91365 | 30.79894 | 167 ft | 11 kts | 6° |
| 2026-05-04 11:25 | 36.91457 | 30.79901 | 169 ft | 12 kts | 6° |
| 2026-05-04 11:25 | 36.91550 | 30.79911 | 169 ft | 16 kts | 4° |
| 2026-05-04 11:25 | 36.91668 | 30.79934 | 167 ft | 16 kts | 13° |
| 2026-05-04 11:26 | 36.91711 | 30.80039 | 169 ft | 7 kts | 128° |
| 2026-05-04 11:27 | 36.91633 | 30.80140 | 173 ft | 0 kts | 188° |